createdAt,value
2019-03-27T00:00:09.469Z,94501.85
2019-03-27T00:02:38.093Z,94500.23
2019-03-27T00:05:06.909Z,94495.11
2019-03-27T00:07:35.566Z,94492.01
2019-03-27T00:10:08.278Z,94494.43
2019-03-27T00:12:37.199Z,94492.28
2019-03-27T00:15:13.304Z,94490.53
2019-03-27T00:17:39.100Z,94485.05
2019-03-27T00:20:11.339Z,94477.59
2019-03-27T00:22:40.080Z,94485.77
2019-03-27T00:25:09.600Z,94483.43
2019-03-27T00:27:38.212Z,94479.99
2019-03-27T00:30:09.094Z,94484.02
2019-03-27T00:32:37.715Z,94482.86
2019-03-27T00:35:07.627Z,94555.88
2019-03-27T00:37:36.290Z,94490.42
2019-03-27T00:40:07.604Z,94490.42
2019-03-27T00:42:36.218Z,94489.77
2019-03-27T00:45:07.145Z,94485.17
2019-03-27T00:47:35.755Z,94485.11
2019-03-27T00:50:07.947Z,94487.27
2019-03-27T00:52:36.593Z,94469.83
2019-03-27T00:55:07.203Z,94469.83
2019-03-27T00:57:35.829Z,94485.49
2019-03-27T01:00:13.085Z,94488.50
2019-03-27T01:02:41.698Z,94478.92
2019-03-27T01:05:10.381Z,94492.66
2019-03-27T01:07:39.039Z,94487.33
2019-03-27T01:10:07.653Z,94487.33
2019-03-27T01:12:36.284Z,94496.56
2019-03-27T01:15:07.338Z,94496.56
2019-03-27T01:17:35.963Z,94496.95
2019-03-27T01:20:05.683Z,94504.55
2019-03-27T01:22:34.328Z,94504.55
2019-03-27T01:25:02.950Z,94499.57
2019-03-27T01:27:31.561Z,94500.42
2019-03-27T01:30:00.350Z,94500.42
2019-03-27T01:32:28.938Z,94496.48
2019-03-27T01:34:57.568Z,94505.86
2019-03-27T01:37:26.164Z,94505.86
2019-03-27T01:39:54.709Z,94496.75
2019-03-27T01:42:23.326Z,94509.27
2019-03-27T01:44:51.975Z,94509.27
2019-03-27T01:47:20.597Z,94515.88
2019-03-27T01:49:49.223Z,94515.88
2019-03-27T01:52:17.881Z,94521.36
2019-03-27T01:54:46.491Z,94517.20
2019-03-27T01:57:15.105Z,94517.20
2019-03-27T01:59:43.683Z,94531.38
2019-03-27T02:02:12.302Z,94537.45
2019-03-27T02:04:40.930Z,94528.66
2019-03-27T02:07:09.579Z,94528.66
2019-03-27T02:09:38.201Z,94527.91
2019-03-27T02:12:06.829Z,94530.44
2019-03-27T02:14:35.478Z,94530.44
2019-03-27T02:17:04.097Z,94537.91
2019-03-27T02:19:32.724Z,94536.25
2019-03-27T02:22:01.372Z,94533.48
2019-03-27T02:24:29.988Z,94536.69
2019-03-27T02:26:58.823Z,94536.69
2019-03-27T02:29:27.489Z,94524.83
2019-03-27T02:31:56.115Z,94537.10
2019-03-27T02:34:24.752Z,94537.10
2019-03-27T02:36:53.343Z,94544.47
2019-03-27T02:39:21.961Z,94541.66
2019-03-27T02:41:50.586Z,94545.44
2019-03-27T02:44:19.253Z,94545.44
2019-03-27T02:46:47.807Z,94564.02
2019-03-27T02:49:16.423Z,94559.13
2019-03-27T02:51:45.089Z,94559.13
2019-03-27T02:54:13.703Z,94548.91
2019-03-27T02:56:42.260Z,94556.40
2019-03-27T02:59:10.920Z,94565.27
2019-03-27T03:01:39.546Z,94565.27
2019-03-27T03:04:08.090Z,94552.00
2019-03-27T03:06:36.747Z,94552.00
2019-03-27T03:09:06.643Z,94562.30
2019-03-27T03:11:35.250Z,94562.30
2019-03-27T03:14:04.016Z,94576.29
2019-03-27T03:16:42.233Z,94564.89
2019-03-27T03:19:02.981Z,94577.70
2019-03-27T03:21:31.559Z,94568.47
2019-03-27T03:24:00.191Z,94568.47
2019-03-27T03:26:28.807Z,94580.45
2019-03-27T03:28:57.456Z,94581.85
2019-03-27T03:31:26.011Z,94581.85
2019-03-27T03:33:54.544Z,94588.13
2019-03-27T03:36:23.204Z,94588.98
2019-03-27T03:38:51.823Z,94574.23
2019-03-27T03:41:20.444Z,94585.34
2019-03-27T03:43:49.097Z,94585.34
2019-03-27T03:46:18.131Z,94597.45
2019-03-27T03:48:46.738Z,94597.45
2019-03-27T03:51:15.787Z,94592.41
2019-03-27T03:53:45.302Z,94597.23
2019-03-27T03:56:15.735Z,94603.89
2019-03-27T03:58:44.601Z,94599.38
2019-03-27T04:01:14.865Z,94611.58
2019-03-27T04:03:44.794Z,94611.58
2019-03-27T04:06:13.455Z,94618.19
2019-03-27T04:08:42.070Z,94611.42
2019-03-27T04:11:10.683Z,94611.42
2019-03-27T04:13:39.410Z,94621.69
2019-03-27T04:16:08.044Z,94626.81
2019-03-27T04:18:36.653Z,94626.81
2019-03-27T04:21:05.320Z,94623.69
2019-03-27T04:23:33.864Z,94623.69
2019-03-27T04:26:09.511Z,94617.72
2019-03-27T04:28:32.840Z,94614.85
2019-03-27T04:31:01.461Z,94605.69
2019-03-27T04:33:30.003Z,94614.69
2019-03-27T04:35:58.661Z,94628.81
2019-03-27T04:38:27.219Z,94635.32
2019-03-27T04:40:55.847Z,94634.87
2019-03-27T04:43:24.435Z,94635.78
2019-03-27T04:45:53.066Z,94656.66
2019-03-27T04:48:21.692Z,94656.66
2019-03-27T04:50:50.336Z,94643.10
2019-03-27T04:53:18.889Z,94650.08
2019-03-27T04:55:47.446Z,94642.59
2019-03-27T04:58:16.104Z,94663.25
2019-03-27T05:00:44.726Z,94656.52
2019-03-27T05:03:13.349Z,94658.77
2019-03-27T05:05:41.924Z,94653.96
2019-03-27T05:08:10.551Z,94653.47
2019-03-27T05:10:39.171Z,94653.47
2019-03-27T05:13:07.830Z,94660.39
2019-03-27T05:15:36.445Z,94673.56
2019-03-27T05:18:05.068Z,94665.60
2019-03-27T05:20:33.724Z,94680.95
2019-03-27T05:23:02.280Z,94679.34
2019-03-27T05:25:30.898Z,94667.94
2019-03-27T05:27:59.566Z,94681.80
2019-03-27T05:30:28.990Z,94677.27
2019-03-27T05:32:57.907Z,94683.00
2019-03-27T05:35:26.567Z,94680.32
2019-03-27T05:37:55.488Z,94677.12
2019-03-27T05:40:24.183Z,94682.88
2019-03-27T05:43:00.468Z,94676.31
2019-03-27T05:45:23.420Z,94693.88
2019-03-27T05:47:59.568Z,94693.88
2019-03-27T05:50:22.415Z,94693.38
2019-03-27T05:52:51.049Z,94691.05
2019-03-27T05:55:19.748Z,94695.23
2019-03-27T05:57:48.616Z,94692.30
2019-03-27T06:00:18.313Z,94701.98
2019-03-27T06:02:46.946Z,94697.87
2019-03-27T06:05:15.611Z,94700.94
2019-03-27T06:07:44.166Z,94701.73
2019-03-27T06:10:16.155Z,94704.56
2019-03-27T06:12:43.265Z,94704.56
2019-03-27T06:15:11.895Z,94701.36
2019-03-27T06:17:40.527Z,94692.61
2019-03-27T06:20:09.388Z,94699.25
2019-03-27T06:22:37.940Z,94704.70
2019-03-27T06:25:07.373Z,94696.32
2019-03-27T06:27:36.031Z,94696.32
2019-03-27T06:30:05.254Z,94707.27
2019-03-27T06:32:33.878Z,94706.53
2019-03-27T06:35:02.535Z,94702.16
2019-03-27T06:37:31.156Z,94700.43
2019-03-27T06:39:59.773Z,94700.43
2019-03-27T06:42:28.291Z,94711.38
2019-03-27T06:44:56.846Z,94705.81
2019-03-27T06:47:25.467Z,94712.16
2019-03-27T06:49:54.121Z,94712.05
2019-03-27T06:52:22.734Z,94710.81
2019-03-27T06:54:51.355Z,94712.80
2019-03-27T06:57:19.954Z,94724.45
2019-03-27T06:59:48.575Z,94720.02
2019-03-27T07:02:17.185Z,94728.05
2019-03-27T07:04:45.853Z,94721.80
2019-03-27T07:07:14.487Z,94719.09
2019-03-27T07:09:43.107Z,94724.55
2019-03-27T07:12:21.082Z,94714.91
2019-03-27T07:14:42.098Z,94710.44
2019-03-27T07:17:10.713Z,94718.36
2019-03-27T07:19:39.293Z,94721.33
2019-03-27T07:22:07.987Z,94720.22
2019-03-27T07:24:36.611Z,94723.57
2019-03-27T07:27:05.266Z,94719.27
2019-03-27T07:29:33.819Z,94710.30
2019-03-27T07:32:02.441Z,94711.86
2019-03-27T07:34:31.089Z,94710.52
2019-03-27T07:36:59.640Z,94709.66
2019-03-27T07:39:28.271Z,94709.66
2019-03-27T07:41:57.020Z,94721.92
2019-03-27T07:44:25.655Z,94714.52
2019-03-27T07:46:54.284Z,94714.67
2019-03-27T07:49:22.911Z,94707.45
2019-03-27T07:51:51.534Z,94707.45
2019-03-27T07:54:20.264Z,94729.86
2019-03-27T07:56:48.888Z,94730.25
2019-03-27T07:59:17.512Z,94726.55
2019-03-27T08:01:46.170Z,94726.55
2019-03-27T08:04:14.840Z,94719.45
2019-03-27T08:06:43.412Z,94722.72
2019-03-27T08:09:12.141Z,94727.39
2019-03-27T08:11:40.938Z,94729.58
2019-03-27T08:14:09.678Z,94735.72
2019-03-27T08:16:38.318Z,94728.44
2019-03-27T08:19:08.171Z,94794.45
2019-03-27T08:21:36.951Z,94736.56
2019-03-27T08:24:05.589Z,94725.25
2019-03-27T08:26:34.209Z,94725.25
2019-03-27T08:29:02.822Z,94726.61
2019-03-27T08:31:31.486Z,94724.36
2019-03-27T08:34:00.112Z,94729.45
2019-03-27T08:36:28.730Z,94725.34
2019-03-27T08:38:57.395Z,94732.80
2019-03-27T08:41:26.027Z,94729.54
2019-03-27T08:43:54.653Z,94730.34
2019-03-27T08:46:23.404Z,94730.63
2019-03-27T08:48:52.100Z,94726.78
2019-03-27T08:51:20.723Z,94735.95
2019-03-27T08:53:49.371Z,94740.84
2019-03-27T08:56:18.007Z,94725.77
2019-03-27T08:58:46.632Z,94731.08
2019-03-27T09:01:15.277Z,94737.89
2019-03-27T09:03:43.899Z,94741.92
2019-03-27T09:06:12.527Z,94725.92
2019-03-27T09:08:41.178Z,94722.08
2019-03-27T09:11:09.798Z,94724.43
2019-03-27T09:13:38.436Z,94717.14
2019-03-27T09:16:07.092Z,94714.38
2019-03-27T09:18:35.705Z,94725.52
2019-03-27T09:21:04.345Z,94712.22
2019-03-27T09:23:32.997Z,94713.42
2019-03-27T09:26:01.624Z,94710.59
2019-03-27T09:28:30.249Z,94719.09
2019-03-27T09:30:58.903Z,94718.63
2019-03-27T09:33:27.519Z,94721.78
2019-03-27T09:35:56.195Z,94714.72
2019-03-27T09:38:24.813Z,94711.47
2019-03-27T09:40:53.437Z,94713.02
2019-03-27T09:43:22.070Z,94707.64
2019-03-27T09:45:50.719Z,94724.38
2019-03-27T09:48:19.339Z,94712.36
2019-03-27T09:50:47.984Z,94705.42
2019-03-27T09:53:16.620Z,94703.67
2019-03-27T09:55:45.241Z,94700.75
2019-03-27T09:58:13.792Z,94704.20
2019-03-27T10:00:51.185Z,94695.61
2019-03-27T10:03:19.822Z,94695.92
2019-03-27T10:05:48.363Z,94700.53
2019-03-27T10:08:17.026Z,94679.15
2019-03-27T10:10:45.638Z,94688.31
2019-03-27T10:13:14.264Z,94698.16
2019-03-27T10:15:42.924Z,94689.84
2019-03-27T10:18:12.986Z,94685.37
2019-03-27T10:20:41.619Z,94676.77
2019-03-27T10:23:10.278Z,94681.19
2019-03-27T10:25:38.913Z,94676.02
2019-03-27T10:28:07.539Z,94683.46
2019-03-27T10:30:36.219Z,94682.32
2019-03-27T10:33:04.831Z,94675.98
2019-03-27T10:35:33.466Z,94674.77
2019-03-27T10:38:02.132Z,94679.95
2019-03-27T10:40:30.760Z,94663.38
2019-03-27T10:42:59.309Z,94659.77
2019-03-27T10:45:27.950Z,94669.69
2019-03-27T10:47:56.571Z,94662.95
2019-03-27T10:50:25.189Z,94669.62
2019-03-27T10:52:53.924Z,94664.11
2019-03-27T10:55:22.559Z,94652.20
2019-03-27T10:57:51.345Z,94641.35
2019-03-27T11:00:20.027Z,94641.03
2019-03-27T11:02:48.651Z,94644.72
2019-03-27T11:05:17.338Z,94637.45
2019-03-27T11:07:45.998Z,94634.17
2019-03-27T11:10:14.934Z,94644.50
2019-03-27T11:12:43.489Z,94633.84
2019-03-27T11:15:12.544Z,94631.05
2019-03-27T11:17:41.168Z,94623.17
2019-03-27T11:20:11.526Z,94621.77
2019-03-27T11:22:40.184Z,94620.58
2019-03-27T11:25:09.311Z,94628.95
2019-03-27T11:27:37.935Z,94618.58
2019-03-27T11:30:09.726Z,94624.12
2019-03-27T11:32:38.366Z,94618.73
2019-03-27T11:35:07.187Z,94623.23
2019-03-27T11:37:35.846Z,94614.78
2019-03-27T11:40:05.766Z,94612.20
2019-03-27T11:42:34.400Z,94599.65
2019-03-27T11:45:03.347Z,94600.13
2019-03-27T11:47:31.978Z,94604.87
2019-03-27T11:50:00.615Z,94608.66
2019-03-27T11:52:29.853Z,94596.02
2019-03-27T11:54:58.585Z,94604.78
2019-03-27T11:57:27.204Z,94595.55
2019-03-27T11:59:55.801Z,94588.97
2019-03-27T12:02:24.430Z,94590.89
2019-03-27T12:04:53.062Z,94588.56
2019-03-27T12:07:21.735Z,94582.42
2019-03-27T12:09:50.361Z,94577.58
2019-03-27T12:12:19.003Z,94575.95
2019-03-27T12:14:47.666Z,94570.19
2019-03-27T12:17:16.287Z,94576.02
2019-03-27T12:19:44.911Z,94584.02
2019-03-27T12:22:13.599Z,94577.06
2019-03-27T12:24:42.216Z,94568.72
2019-03-27T12:27:10.770Z,94565.95
2019-03-27T12:29:39.462Z,94556.52
2019-03-27T12:32:08.088Z,94562.33
2019-03-27T12:34:37.110Z,94561.37
2019-03-27T12:37:05.758Z,94556.44
2019-03-27T12:39:34.396Z,94559.59
2019-03-27T12:42:03.025Z,94557.07
2019-03-27T12:44:31.681Z,94552.30
2019-03-27T12:47:00.308Z,94555.55
2019-03-27T12:49:28.932Z,94552.72
2019-03-27T12:51:57.600Z,94548.17
2019-03-27T12:54:26.225Z,94542.98
2019-03-27T12:56:54.864Z,94545.98
2019-03-27T12:59:23.523Z,94545.25
2019-03-27T13:01:52.152Z,94544.91
2019-03-27T13:04:20.780Z,94545.95
2019-03-27T13:06:49.445Z,94550.98
2019-03-27T13:09:18.067Z,94551.47
2019-03-27T13:11:46.686Z,94546.00
2019-03-27T13:14:15.350Z,94546.36
2019-03-27T13:16:43.997Z,94543.30
2019-03-27T13:19:12.614Z,94543.58
2019-03-27T13:21:41.265Z,94544.88
2019-03-27T13:24:09.890Z,94537.97
2019-03-27T13:26:38.598Z,94538.91
2019-03-27T13:29:07.267Z,94549.02
2019-03-27T13:31:35.898Z,94538.48
2019-03-27T13:34:04.522Z,94543.57
2019-03-27T13:36:34.131Z,94539.41
2019-03-27T13:39:02.830Z,94542.78
2019-03-27T13:41:31.393Z,94544.05
2019-03-27T13:44:00.132Z,94541.36
2019-03-27T13:46:28.759Z,94540.89
2019-03-27T13:48:57.411Z,94543.27
2019-03-27T13:51:40.030Z,94552.96
2019-03-27T13:53:57.354Z,94539.17
2019-03-27T13:56:25.976Z,94542.93
2019-03-27T13:58:54.638Z,94547.40
2019-03-27T14:01:23.279Z,94543.09
2019-03-27T14:03:51.910Z,94547.42
2019-03-27T14:06:20.577Z,94549.72
2019-03-27T14:08:49.199Z,94548.94
2019-03-27T14:11:17.829Z,94542.23
2019-03-27T14:13:46.583Z,94550.77
2019-03-27T14:16:15.147Z,94552.40
2019-03-27T14:18:43.695Z,94551.88
2019-03-27T14:21:12.370Z,94550.39
2019-03-27T14:23:41.009Z,94555.47
2019-03-27T14:26:09.638Z,94548.38
2019-03-27T14:28:38.322Z,94553.28
2019-03-27T14:31:07.003Z,94550.66
2019-03-27T14:33:35.640Z,94549.08
2019-03-27T14:36:04.301Z,94553.12
2019-03-27T14:38:32.925Z,94560.76
2019-03-27T14:41:01.548Z,94555.30
2019-03-27T14:43:30.210Z,94557.77
2019-03-27T14:45:58.857Z,94556.42
2019-03-27T14:48:27.483Z,94558.41
2019-03-27T14:50:56.081Z,94556.88
2019-03-27T14:53:24.710Z,94563.28
2019-03-27T14:55:53.272Z,94562.55
2019-03-27T14:58:22.654Z,94556.91
2019-03-27T15:00:51.289Z,94566.86
2019-03-27T15:03:19.912Z,94564.14
2019-03-27T15:05:48.563Z,94559.37
2019-03-27T15:08:17.209Z,94558.45
2019-03-27T15:10:45.921Z,94568.39
2019-03-27T15:13:15.463Z,94569.22
2019-03-27T15:15:44.199Z,94566.53
2019-03-27T15:18:12.758Z,94575.99
2019-03-27T15:20:41.602Z,94570.47
2019-03-27T15:23:10.205Z,94584.23
2019-03-27T15:25:38.829Z,94576.94
2019-03-27T15:28:07.498Z,94575.80
2019-03-27T15:30:36.126Z,94573.94
2019-03-27T15:33:04.756Z,94577.45
2019-03-27T15:35:33.425Z,94581.55
2019-03-27T15:38:02.053Z,94586.28
2019-03-27T15:40:44.637Z,94592.13
2019-03-27T15:43:13.357Z,94588.45
2019-03-27T15:45:41.980Z,94589.53
2019-03-27T15:48:10.653Z,94588.31
2019-03-27T15:50:39.274Z,94600.06
2019-03-27T15:53:08.499Z,94597.63
2019-03-27T15:55:37.160Z,94596.09
2019-03-27T15:58:05.862Z,94615.65
2019-03-27T16:00:34.558Z,94609.87
2019-03-27T16:03:03.232Z,94616.47
2019-03-27T16:05:31.866Z,94614.98
2019-03-27T16:08:00.480Z,94621.44
2019-03-27T16:10:29.204Z,94619.97
2019-03-27T16:12:57.829Z,94629.58
2019-03-27T16:15:26.533Z,94627.48
2019-03-27T16:17:55.210Z,94621.84
2019-03-27T16:20:23.909Z,94628.91
2019-03-27T16:22:52.533Z,94631.45
2019-03-27T16:25:21.265Z,94636.50
2019-03-27T16:27:49.892Z,94642.20
2019-03-27T16:30:18.507Z,94641.84
2019-03-27T16:32:47.181Z,94647.42
2019-03-27T16:35:15.806Z,94643.14
2019-03-27T16:37:44.429Z,94656.55
2019-03-27T16:40:13.596Z,94647.64
2019-03-27T16:42:42.215Z,94663.24
2019-03-27T16:45:10.943Z,94661.14
2019-03-27T16:47:39.611Z,94662.70
2019-03-27T16:50:09.337Z,94667.91
2019-03-27T16:52:37.894Z,94673.16
2019-03-27T16:55:09.256Z,94677.80
2019-03-27T16:57:37.874Z,94681.83
2019-03-27T17:00:07.521Z,94699.92
2019-03-27T17:02:36.262Z,94696.09
2019-03-27T17:05:06.676Z,94696.75
2019-03-27T17:07:35.290Z,94702.25
2019-03-27T17:10:04.851Z,94703.64
2019-03-27T17:12:33.476Z,94701.81
2019-03-27T17:15:02.109Z,94708.97
2019-03-27T17:17:30.773Z,94721.73
2019-03-27T17:19:59.403Z,94721.52
2019-03-27T17:22:28.024Z,94730.57
2019-03-27T17:24:56.676Z,94738.03
2019-03-27T17:27:25.383Z,94743.80
2019-03-27T17:29:54.005Z,94749.41
2019-03-27T17:32:22.668Z,94748.44
2019-03-27T17:34:51.999Z,94752.06
2019-03-27T17:37:20.807Z,94748.67
2019-03-27T17:39:49.453Z,94750.56
2019-03-27T17:42:18.012Z,94760.80
2019-03-27T17:44:46.631Z,94765.66
2019-03-27T17:47:16.622Z,94771.36
2019-03-27T17:49:45.257Z,94766.38
2019-03-27T17:52:13.905Z,94768.28
2019-03-27T17:54:42.572Z,94780.77
2019-03-27T17:57:11.196Z,94774.83
2019-03-27T17:59:39.836Z,94778.98
2019-03-27T18:02:08.561Z,94789.77
2019-03-27T18:04:37.192Z,94795.70
2019-03-27T18:07:05.633Z,94800.47
2019-03-27T18:09:34.318Z,94807.56
2019-03-27T18:12:03.115Z,94808.72
2019-03-27T18:14:31.736Z,94808.86
2019-03-27T18:17:00.401Z,94810.94
2019-03-27T18:19:29.037Z,94816.69
2019-03-27T18:22:07.728Z,94815.59
2019-03-27T18:24:28.153Z,94811.95
2019-03-27T18:26:56.817Z,94813.78
2019-03-27T18:29:25.516Z,94816.91
2019-03-27T18:31:54.182Z,94816.47
2019-03-27T18:34:22.886Z,94823.83
2019-03-27T18:36:51.596Z,94824.13
2019-03-27T18:39:20.335Z,94824.45
2019-03-27T18:41:48.963Z,94822.44
2019-03-27T18:44:17.653Z,94827.23
2019-03-27T18:46:46.378Z,94828.09
2019-03-27T18:49:15.090Z,94824.28
2019-03-27T18:51:43.783Z,94826.09
2019-03-27T18:54:12.533Z,94823.20
2019-03-27T18:56:41.229Z,94825.37
2019-03-27T18:59:09.921Z,94824.20
2019-03-27T19:01:38.675Z,94829.58
2019-03-27T19:04:07.379Z,94827.88
2019-03-27T19:06:36.093Z,94836.98
2019-03-27T19:09:07.793Z,94832.19
2019-03-27T19:11:36.497Z,94832.97
2019-03-27T19:14:05.288Z,94831.78
2019-03-27T19:16:34.023Z,94828.64
2019-03-27T19:19:02.718Z,94834.27
2019-03-27T19:21:31.426Z,94840.47
2019-03-27T19:24:13.178Z,94838.97
2019-03-27T19:26:30.526Z,94848.34
2019-03-27T19:28:59.224Z,94841.86
2019-03-27T19:31:27.971Z,94841.94
2019-03-27T19:33:56.670Z,94846.89
2019-03-27T19:36:25.371Z,94845.82
2019-03-27T19:38:54.176Z,94843.52
2019-03-27T19:41:23.143Z,94845.95
2019-03-27T19:43:51.917Z,94841.33
2019-03-27T19:46:20.571Z,94846.20
2019-03-27T19:48:49.289Z,94849.10
2019-03-27T19:51:17.982Z,94849.11
2019-03-27T19:53:47.608Z,94850.08
2019-03-27T19:56:16.311Z,94845.88
2019-03-27T19:58:45.010Z,94839.94
2019-03-27T20:01:13.734Z,94846.66
2019-03-27T20:03:42.424Z,94847.87
2019-03-27T20:06:11.128Z,94847.73
2019-03-27T20:08:39.872Z,94850.17
2019-03-27T20:11:08.568Z,94854.34
2019-03-27T20:13:37.265Z,94856.58
2019-03-27T20:16:06.018Z,94855.23
2019-03-27T20:18:34.720Z,94855.23
2019-03-27T20:21:03.417Z,94847.69
2019-03-27T20:23:32.160Z,94855.66
2019-03-27T20:26:00.859Z,94861.83
2019-03-27T20:28:29.565Z,94862.70
2019-03-27T20:30:58.242Z,94860.32
2019-03-27T20:33:26.870Z,94862.05
2019-03-27T20:35:55.572Z,94864.43
2019-03-27T20:38:24.223Z,94864.43
2019-03-27T20:40:52.854Z,94870.52
2019-03-27T20:43:21.480Z,94871.20
2019-03-27T20:45:50.149Z,94876.17
2019-03-27T20:48:18.772Z,94887.28
2019-03-27T20:50:47.773Z,94890.62
2019-03-27T20:53:16.470Z,94879.41
2019-03-27T20:55:45.168Z,94886.44
2019-03-27T20:58:13.794Z,94886.44
2019-03-27T21:00:42.448Z,94882.23
2019-03-27T21:03:11.084Z,94887.81
2019-03-27T21:05:39.711Z,94887.81
2019-03-27T21:08:08.304Z,94894.22
2019-03-27T21:10:36.935Z,94894.22
2019-03-27T21:13:05.568Z,94899.66
2019-03-27T21:15:34.250Z,94896.74
2019-03-27T21:18:02.882Z,94896.78
2019-03-27T21:20:31.504Z,94895.30
2019-03-27T21:23:00.178Z,94898.59
2019-03-27T21:25:28.809Z,94900.98
2019-03-27T21:27:57.440Z,94896.06
2019-03-27T21:30:26.095Z,94898.52
2019-03-27T21:32:54.647Z,94902.70
2019-03-27T21:35:23.272Z,94900.44
2019-03-27T21:37:51.936Z,94905.58
2019-03-27T21:40:20.554Z,94902.09
2019-03-27T21:42:49.179Z,94905.17
2019-03-27T21:45:17.841Z,94905.65
2019-03-27T21:47:46.523Z,94909.57
2019-03-27T21:50:15.150Z,94916.63
2019-03-27T21:52:43.816Z,94918.90
2019-03-27T21:55:22.440Z,94911.08
2019-03-27T21:57:42.890Z,94916.63
2019-03-27T22:00:12.044Z,94913.24
2019-03-27T22:02:40.595Z,94911.91
2019-03-27T22:05:09.230Z,94914.33
2019-03-27T22:07:37.878Z,94914.33
2019-03-27T22:10:07.995Z,94922.46
2019-03-27T22:12:38.233Z,94914.88
2019-03-27T22:15:08.571Z,94920.23
2019-03-27T22:17:37.191Z,94924.64
2019-03-27T22:20:07.509Z,94931.26
2019-03-27T22:22:36.170Z,94927.45
2019-03-27T22:25:07.259Z,94919.81
2019-03-27T22:27:35.885Z,94926.06
2019-03-27T22:30:08.250Z,94935.14
2019-03-27T22:32:36.870Z,94935.14
2019-03-27T22:35:06.894Z,94934.17
2019-03-27T22:37:35.554Z,94943.13
2019-03-27T22:40:07.114Z,94946.59
2019-03-27T22:42:35.737Z,94948.59
2019-03-27T22:45:05.502Z,94940.98
2019-03-27T22:47:34.135Z,94951.44
2019-03-27T22:50:02.945Z,94958.02
2019-03-27T22:52:31.606Z,94946.83
2019-03-27T22:55:00.389Z,94956.61
2019-03-27T22:57:28.921Z,94955.02
2019-03-27T22:59:57.529Z,94960.50
2019-03-27T23:02:26.141Z,94965.71
2019-03-27T23:04:54.763Z,94963.27
2019-03-27T23:07:23.426Z,94959.20
2019-03-27T23:09:52.042Z,94962.89
2019-03-27T23:12:20.668Z,94966.95
2019-03-27T23:14:49.340Z,94958.64
2019-03-27T23:17:17.951Z,94958.98
2019-03-27T23:19:46.573Z,94960.29
2019-03-27T23:22:15.151Z,94962.80
2019-03-27T23:24:43.707Z,94974.02
2019-03-27T23:27:12.329Z,94970.01
2019-03-27T23:29:40.985Z,94967.91
2019-03-27T23:32:09.609Z,94963.73
2019-03-27T23:34:38.309Z,94968.05
2019-03-27T23:37:06.960Z,94967.03
2019-03-27T23:39:35.575Z,94970.70
2019-03-27T23:42:04.343Z,94970.64
2019-03-27T23:44:32.925Z,94971.66
2019-03-27T23:47:01.537Z,94961.40
2019-03-27T23:49:30.173Z,94961.40
2019-03-27T23:51:58.831Z,94970.72
2019-03-27T23:54:27.585Z,94963.73
2019-03-27T23:56:56.214Z,94969.01
2019-03-27T23:59:24.864Z,94972.62
